sensor_id;sensor_type;location;lat;lon;timestamp;P1;durP1;ratioP1;P2;durP2;ratioP2
13985;SDS011;7067;51.832;8.296;2023-07-24T00:02:06;2.60;;;2.40;;
13985;SDS011;7067;51.832;8.296;2023-07-24T00:04:31;2.03;;;1.92;;
13985;SDS011;7067;51.832;8.296;2023-07-24T00:06:57;2.28;;;2.17;;
13985;SDS011;7067;51.832;8.296;2023-07-24T00:09:22;2.30;;;2.20;;
13985;SDS011;7067;51.832;8.296;2023-07-24T00:11:48;2.30;;;2.20;;
13985;SDS011;7067;51.832;8.296;2023-07-24T00:14:14;2.45;;;2.25;;
13985;SDS011;7067;51.832;8.296;2023-07-24T00:16:40;2.13;;;2.03;;
13985;SDS011;7067;51.832;8.296;2023-07-24T00:19:05;2.20;;;2.10;;
13985;SDS011;7067;51.832;8.296;2023-07-24T00:21:31;2.40;;;2.20;;
13985;SDS011;7067;51.832;8.296;2023-07-24T00:23:56;2.17;;;2.08;;
13985;SDS011;7067;51.832;8.296;2023-07-24T00:26:21;2.55;;;2.42;;
13985;SDS011;7067;51.832;8.296;2023-07-24T00:28:47;2.50;;;2.30;;
13985;SDS011;7067;51.832;8.296;2023-07-24T00:31:12;2.45;;;2.25;;
13985;SDS011;7067;51.832;8.296;2023-07-24T00:33:37;2.35;;;2.25;;
13985;SDS011;7067;51.832;8.296;2023-07-24T00:36:03;2.63;;;2.17;;
13985;SDS011;7067;51.832;8.296;2023-07-24T00:38:28;2.90;;;2.70;;
13985;SDS011;7067;51.832;8.296;2023-07-24T00:40:53;2.53;;;2.42;;
13985;SDS011;7067;51.832;8.296;2023-07-24T00:43:19;2.55;;;2.40;;
13985;SDS011;7067;51.832;8.296;2023-07-24T00:45:44;2.15;;;1.95;;
13985;SDS011;7067;51.832;8.296;2023-07-24T00:48:11;2.80;;;2.60;;
13985;SDS011;7067;51.832;8.296;2023-07-24T00:50:36;3.15;;;2.85;;
13985;SDS011;7067;51.832;8.296;2023-07-24T00:53:02;2.75;;;2.55;;
13985;SDS011;7067;51.832;8.296;2023-07-24T00:55:28;3.00;;;2.80;;
13985;SDS011;7067;51.832;8.296;2023-07-24T00:57:53;2.78;;;2.45;;
13985;SDS011;7067;51.832;8.296;2023-07-24T01:00:20;3.08;;;2.50;;
13985;SDS011;7067;51.832;8.296;2023-07-24T01:02:45;3.28;;;2.97;;
13985;SDS011;7067;51.832;8.296;2023-07-24T01:05:11;4.63;;;2.72;;
13985;SDS011;7067;51.832;8.296;2023-07-24T01:07:38;2.90;;;2.70;;
13985;SDS011;7067;51.832;8.296;2023-07-24T01:10:03;3.55;;;2.72;;
13985;SDS011;7067;51.832;8.296;2023-07-24T01:12:35;3.67;;;2.85;;
13985;SDS011;7067;51.832;8.296;2023-07-24T01:17:33;3.63;;;2.80;;
13985;SDS011;7067;51.832;8.296;2023-07-24T01:19:59;2.53;;;2.42;;
13985;SDS011;7067;51.832;8.296;2023-07-24T01:27:43;3.10;;;2.90;;
13985;SDS011;7067;51.832;8.296;2023-07-24T01:30:09;2.90;;;2.70;;
13985;SDS011;7067;51.832;8.296;2023-07-24T01:32:35;3.00;;;2.80;;
13985;SDS011;7067;51.832;8.296;2023-07-24T01:35:01;2.83;;;2.63;;
13985;SDS011;7067;51.832;8.296;2023-07-24T01:37:26;2.67;;;2.50;;
13985;SDS011;7067;51.832;8.296;2023-07-24T01:39:52;5.80;;;2.97;;
13985;SDS011;7067;51.832;8.296;2023-07-24T01:42:18;2.90;;;2.70;;
13985;SDS011;7067;51.832;8.296;2023-07-24T01:44:43;3.35;;;3.05;;
13985;SDS011;7067;51.832;8.296;2023-07-24T01:47:09;2.88;;;2.40;;
13985;SDS011;7067;51.832;8.296;2023-07-24T01:49:34;2.97;;;2.78;;
13985;SDS011;7067;51.832;8.296;2023-07-24T01:51:59;2.88;;;2.65;;
13985;SDS011;7067;51.832;8.296;2023-07-24T01:54:25;3.38;;;3.00;;
13985;SDS011;7067;51.832;8.296;2023-07-24T01:56:50;3.60;;;3.10;;
13985;SDS011;7067;51.832;8.296;2023-07-24T01:59:16;3.25;;;2.95;;
13985;SDS011;7067;51.832;8.296;2023-07-24T02:01:42;3.80;;;3.50;;
13985;SDS011;7067;51.832;8.296;2023-07-24T02:04:07;4.63;;;3.50;;
13985;SDS011;7067;51.832;8.296;2023-07-24T02:06:32;4.18;;;3.55;;
13985;SDS011;7067;51.832;8.296;2023-07-24T02:08:58;7.07;;;3.45;;
13985;SDS011;7067;51.832;8.296;2023-07-24T02:11:23;3.15;;;2.95;;
13985;SDS011;7067;51.832;8.296;2023-07-24T02:13:48;3.55;;;3.35;;
13985;SDS011;7067;51.832;8.296;2023-07-24T02:16:14;4.63;;;3.60;;
13985;SDS011;7067;51.832;8.296;2023-07-24T02:18:41;3.42;;;3.10;;
13985;SDS011;7067;51.832;8.296;2023-07-24T02:21:07;3.70;;;3.38;;
13985;SDS011;7067;51.832;8.296;2023-07-24T02:23:32;3.30;;;3.10;;
13985;SDS011;7067;51.832;8.296;2023-07-24T02:25:58;3.70;;;3.40;;
13985;SDS011;7067;51.832;8.296;2023-07-24T02:28:23;4.43;;;3.10;;
13985;SDS011;7067;51.832;8.296;2023-07-24T02:30:48;4.80;;;3.92;;
13985;SDS011;7067;51.832;8.296;2023-07-24T02:33:14;3.22;;;2.92;;
13985;SDS011;7067;51.832;8.296;2023-07-24T02:35:40;4.35;;;3.70;;
13985;SDS011;7067;51.832;8.296;2023-07-24T02:38:06;3.88;;;3.40;;
13985;SDS011;7067;51.832;8.296;2023-07-24T02:40:32;3.80;;;3.35;;
13985;SDS011;7067;51.832;8.296;2023-07-24T02:42:58;4.75;;;3.30;;
13985;SDS011;7067;51.832;8.296;2023-07-24T02:45:23;3.85;;;3.55;;
13985;SDS011;7067;51.832;8.296;2023-07-24T02:47:48;3.75;;;3.47;;
13985;SDS011;7067;51.832;8.296;2023-07-24T02:50:14;3.67;;;3.35;;
13985;SDS011;7067;51.832;8.296;2023-07-24T02:52:39;3.90;;;3.38;;
13985;SDS011;7067;51.832;8.296;2023-07-24T02:55:04;3.83;;;3.38;;
13985;SDS011;7067;51.832;8.296;2023-07-24T02:57:30;3.58;;;3.30;;
13985;SDS011;7067;51.832;8.296;2023-07-24T02:59:55;5.40;;;2.95;;
13985;SDS011;7067;51.832;8.296;2023-07-24T03:02:21;3.72;;;3.20;;
13985;SDS011;7067;51.832;8.296;2023-07-24T03:04:46;3.95;;;3.65;;
13985;SDS011;7067;51.832;8.296;2023-07-24T03:07:11;3.97;;;3.75;;
13985;SDS011;7067;51.832;8.296;2023-07-24T03:09:36;4.32;;;3.30;;
13985;SDS011;7067;51.832;8.296;2023-07-24T03:12:02;4.15;;;3.85;;
13985;SDS011;7067;51.832;8.296;2023-07-24T03:14:27;3.72;;;3.42;;
13985;SDS011;7067;51.832;8.296;2023-07-24T03:16:53;3.45;;;3.25;;
13985;SDS011;7067;51.832;8.296;2023-07-24T03:19:18;3.45;;;3.25;;
13985;SDS011;7067;51.832;8.296;2023-07-24T03:21:45;3.85;;;3.40;;
13985;SDS011;7067;51.832;8.296;2023-07-24T03:24:10;5.38;;;3.80;;
13985;SDS011;7067;51.832;8.296;2023-07-24T03:26:36;5.72;;;3.60;;
13985;SDS011;7067;51.832;8.296;2023-07-24T03:29:01;4.00;;;3.70;;
13985;SDS011;7067;51.832;8.296;2023-07-24T03:31:26;4.10;;;3.72;;
13985;SDS011;7067;51.832;8.296;2023-07-24T03:33:52;4.95;;;3.80;;
13985;SDS011;7067;51.832;8.296;2023-07-24T03:36:17;4.07;;;3.70;;
13985;SDS011;7067;51.832;8.296;2023-07-24T03:38:42;3.90;;;3.42;;
13985;SDS011;7067;51.832;8.296;2023-07-24T03:41:08;4.07;;;3.78;;
13985;SDS011;7067;51.832;8.296;2023-07-24T03:43:33;5.00;;;4.00;;
13985;SDS011;7067;51.832;8.296;2023-07-24T03:45:58;3.40;;;3.10;;
13985;SDS011;7067;51.832;8.296;2023-07-24T03:48:24;3.85;;;3.55;;
13985;SDS011;7067;51.832;8.296;2023-07-24T03:50:50;4.25;;;3.78;;
13985;SDS011;7067;51.832;8.296;2023-07-24T03:53:18;4.03;;;3.30;;
13985;SDS011;7067;51.832;8.296;2023-07-24T03:55:43;3.75;;;3.40;;
13985;SDS011;7067;51.832;8.296;2023-07-24T03:58:09;3.72;;;3.22;;
13985;SDS011;7067;51.832;8.296;2023-07-24T04:00:34;3.90;;;3.70;;
13985;SDS011;7067;51.832;8.296;2023-07-24T04:03:00;4.47;;;4.00;;
13985;SDS011;7067;51.832;8.296;2023-07-24T04:05:25;4.20;;;3.80;;
13985;SDS011;7067;51.832;8.296;2023-07-24T04:07:51;5.28;;;3.80;;
13985;SDS011;7067;51.832;8.296;2023-07-24T04:10:16;4.80;;;3.50;;
13985;SDS011;7067;51.832;8.296;2023-07-24T04:12:41;5.88;;;3.92;;
13985;SDS011;7067;51.832;8.296;2023-07-24T04:15:07;5.53;;;3.13;;
13985;SDS011;7067;51.832;8.296;2023-07-24T04:17:32;4.30;;;3.72;;
13985;SDS011;7067;51.832;8.296;2023-07-24T04:19:58;4.95;;;3.42;;
13985;SDS011;7067;51.832;8.296;2023-07-24T04:22:23;4.22;;;3.30;;
13985;SDS011;7067;51.832;8.296;2023-07-24T04:24:49;5.10;;;3.20;;
13985;SDS011;7067;51.832;8.296;2023-07-24T04:27:14;4.03;;;3.47;;
13985;SDS011;7067;51.832;8.296;2023-07-24T04:29:39;4.32;;;3.05;;
13985;SDS011;7067;51.832;8.296;2023-07-24T04:32:05;5.40;;;3.25;;
13985;SDS011;7067;51.832;8.296;2023-07-24T04:34:30;4.45;;;3.72;;
13985;SDS011;7067;51.832;8.296;2023-07-24T04:36:57;3.92;;;3.47;;
13985;SDS011;7067;51.832;8.296;2023-07-24T04:39:23;6.65;;;4.53;;
13985;SDS011;7067;51.832;8.296;2023-07-24T04:41:48;4.25;;;3.28;;
13985;SDS011;7067;51.832;8.296;2023-07-24T04:44:13;4.43;;;3.50;;
13985;SDS011;7067;51.832;8.296;2023-07-24T04:46:39;3.50;;;3.30;;
13985;SDS011;7067;51.832;8.296;2023-07-24T04:49:04;4.00;;;3.25;;
13985;SDS011;7067;51.832;8.296;2023-07-24T04:51:30;4.30;;;3.90;;
13985;SDS011;7067;51.832;8.296;2023-07-24T04:53:55;4.47;;;3.70;;
13985;SDS011;7067;51.832;8.296;2023-07-24T04:56:20;3.70;;;3.40;;
13985;SDS011;7067;51.832;8.296;2023-07-24T04:58:45;5.43;;;3.72;;
13985;SDS011;7067;51.832;8.296;2023-07-24T05:01:11;4.18;;;3.40;;
13985;SDS011;7067;51.832;8.296;2023-07-24T05:03:36;5.28;;;3.75;;
13985;SDS011;7067;51.832;8.296;2023-07-24T05:06:01;4.07;;;3.53;;
13985;SDS011;7067;51.832;8.296;2023-07-24T05:08:27;3.95;;;3.60;;
13985;SDS011;7067;51.832;8.296;2023-07-24T05:10:56;4.15;;;3.67;;
13985;SDS011;7067;51.832;8.296;2023-07-24T05:13:21;3.58;;;3.35;;
13985;SDS011;7067;51.832;8.296;2023-07-24T05:15:47;3.85;;;3.55;;
13985;SDS011;7067;51.832;8.296;2023-07-24T05:18:12;4.32;;;3.92;;
13985;SDS011;7067;51.832;8.296;2023-07-24T05:20:37;6.60;;;3.75;;
13985;SDS011;7067;51.832;8.296;2023-07-24T05:23:03;4.70;;;4.25;;
13985;SDS011;7067;51.832;8.296;2023-07-24T05:25:28;3.60;;;3.30;;
13985;SDS011;7067;51.832;8.296;2023-07-24T05:27:53;5.45;;;3.85;;
13985;SDS011;7067;51.832;8.296;2023-07-24T05:30:19;4.28;;;3.88;;
13985;SDS011;7067;51.832;8.296;2023-07-24T05:32:44;4.95;;;4.18;;
13985;SDS011;7067;51.832;8.296;2023-07-24T05:35:09;4.40;;;4.00;;
13985;SDS011;7067;51.832;8.296;2023-07-24T05:37:35;5.10;;;4.07;;
13985;SDS011;7067;51.832;8.296;2023-07-24T05:40:00;6.55;;;4.15;;
13985;SDS011;7067;51.832;8.296;2023-07-24T05:42:25;9.48;;;4.18;;
13985;SDS011;7067;51.832;8.296;2023-07-24T05:44:51;5.65;;;4.53;;
13985;SDS011;7067;51.832;8.296;2023-07-24T05:47:16;5.32;;;4.07;;
13985;SDS011;7067;51.832;8.296;2023-07-24T05:49:41;4.20;;;3.83;;
13985;SDS011;7067;51.832;8.296;2023-07-24T05:52:07;4.35;;;3.92;;
13985;SDS011;7067;51.832;8.296;2023-07-24T05:54:32;5.70;;;4.10;;
13985;SDS011;7067;51.832;8.296;2023-07-24T05:56:57;7.15;;;4.38;;
13985;SDS011;7067;51.832;8.296;2023-07-24T05:59:23;8.77;;;4.22;;
13985;SDS011;7067;51.832;8.296;2023-07-24T06:01:48;4.30;;;3.97;;
13985;SDS011;7067;51.832;8.296;2023-07-24T06:04:13;4.57;;;3.65;;
13985;SDS011;7067;51.832;8.296;2023-07-24T06:06:39;5.45;;;4.95;;
13985;SDS011;7067;51.832;8.296;2023-07-24T06:09:05;7.13;;;4.72;;
13985;SDS011;7067;51.832;8.296;2023-07-24T06:11:30;5.97;;;4.88;;
13985;SDS011;7067;51.832;8.296;2023-07-24T06:13:55;5.75;;;4.90;;
13985;SDS011;7067;51.832;8.296;2023-07-24T06:16:21;5.05;;;4.60;;
13985;SDS011;7067;51.832;8.296;2023-07-24T06:18:46;5.35;;;4.00;;
13985;SDS011;7067;51.832;8.296;2023-07-24T06:21:11;5.72;;;4.60;;
13985;SDS011;7067;51.832;8.296;2023-07-24T06:23:37;5.18;;;4.43;;
13985;SDS011;7067;51.832;8.296;2023-07-24T06:26:02;4.75;;;4.35;;
13985;SDS011;7067;51.832;8.296;2023-07-24T06:28:27;5.63;;;4.50;;
13985;SDS011;7067;51.832;8.296;2023-07-24T06:30:53;4.95;;;4.30;;
13985;SDS011;7067;51.832;8.296;2023-07-24T06:33:19;5.22;;;4.72;;
13985;SDS011;7067;51.832;8.296;2023-07-24T06:35:46;4.95;;;4.53;;
13985;SDS011;7067;51.832;8.296;2023-07-24T06:38:13;5.18;;;4.72;;
13985;SDS011;7067;51.832;8.296;2023-07-24T06:40:38;4.55;;;4.25;;
13985;SDS011;7067;51.832;8.296;2023-07-24T06:43:03;5.13;;;4.63;;
13985;SDS011;7067;51.832;8.296;2023-07-24T06:45:29;5.95;;;5.05;;
13985;SDS011;7067;51.832;8.296;2023-07-24T06:47:54;4.75;;;4.28;;
13985;SDS011;7067;51.832;8.296;2023-07-24T06:50:19;5.70;;;4.88;;
13985;SDS011;7067;51.832;8.296;2023-07-24T06:52:45;6.10;;;5.10;;
13985;SDS011;7067;51.832;8.296;2023-07-24T06:55:10;6.63;;;5.00;;
13985;SDS011;7067;51.832;8.296;2023-07-24T06:57:35;5.20;;;4.72;;
13985;SDS011;7067;51.832;8.296;2023-07-24T07:00:01;5.60;;;4.43;;
13985;SDS011;7067;51.832;8.296;2023-07-24T07:02:26;6.65;;;5.18;;
13985;SDS011;7067;51.832;8.296;2023-07-24T07:04:53;4.97;;;4.57;;
13985;SDS011;7067;51.832;8.296;2023-07-24T07:07:18;4.75;;;4.32;;
13985;SDS011;7067;51.832;8.296;2023-07-24T07:09:43;5.00;;;4.55;;
13985;SDS011;7067;51.832;8.296;2023-07-24T07:12:09;5.70;;;5.20;;
13985;SDS011;7067;51.832;8.296;2023-07-24T07:14:34;6.50;;;5.50;;
13985;SDS011;7067;51.832;8.296;2023-07-24T07:16:59;6.00;;;4.35;;
13985;SDS011;7067;51.832;8.296;2023-07-24T07:19:25;5.22;;;4.82;;
13985;SDS011;7067;51.832;8.296;2023-07-24T07:21:50;5.38;;;4.97;;
13985;SDS011;7067;51.832;8.296;2023-07-24T07:24:16;5.53;;;5.03;;
13985;SDS011;7067;51.832;8.296;2023-07-24T07:26:41;5.47;;;5.07;;
13985;SDS011;7067;51.832;8.296;2023-07-24T07:29:06;5.40;;;5.00;;
13985;SDS011;7067;51.832;8.296;2023-07-24T07:31:32;5.43;;;4.93;;
13985;SDS011;7067;51.832;8.296;2023-07-24T07:33:57;5.47;;;4.85;;
13985;SDS011;7067;51.832;8.296;2023-07-24T07:36:22;5.00;;;4.50;;
13985;SDS011;7067;51.832;8.296;2023-07-24T07:38:48;7.07;;;4.88;;
13985;SDS011;7067;51.832;8.296;2023-07-24T07:41:14;4.30;;;3.85;;
13985;SDS011;7067;51.832;8.296;2023-07-24T07:43:39;4.40;;;4.10;;
13985;SDS011;7067;51.832;8.296;2023-07-24T07:46:04;4.95;;;4.55;;
13985;SDS011;7067;51.832;8.296;2023-07-24T07:48:30;4.43;;;4.05;;
13985;SDS011;7067;51.832;8.296;2023-07-24T07:50:55;4.63;;;4.28;;
13985;SDS011;7067;51.832;8.296;2023-07-24T07:53:20;4.85;;;4.47;;
13985;SDS011;7067;51.832;8.296;2023-07-24T07:55:46;4.55;;;4.07;;
13985;SDS011;7067;51.832;8.296;2023-07-24T07:58:11;4.63;;;4.22;;
13985;SDS011;7067;51.832;8.296;2023-07-24T08:00:36;5.20;;;4.78;;
13985;SDS011;7067;51.832;8.296;2023-07-24T08:03:04;5.35;;;4.95;;
13985;SDS011;7067;51.832;8.296;2023-07-24T08:05:30;5.45;;;4.90;;
13985;SDS011;7067;51.832;8.296;2023-07-24T08:07:57;5.40;;;4.90;;
13985;SDS011;7067;51.832;8.296;2023-07-24T08:10:22;5.72;;;5.10;;
13985;SDS011;7067;51.832;8.296;2023-07-24T08:12:47;6.00;;;5.40;;
13985;SDS011;7067;51.832;8.296;2023-07-24T08:15:13;5.32;;;4.82;;
13985;SDS011;7067;51.832;8.296;2023-07-24T08:17:38;4.95;;;4.55;;
13985;SDS011;7067;51.832;8.296;2023-07-24T08:20:03;4.38;;;4.07;;
13985;SDS011;7067;51.832;8.296;2023-07-24T08:22:29;4.63;;;4.25;;
13985;SDS011;7067;51.832;8.296;2023-07-24T08:24:54;4.68;;;4.38;;
13985;SDS011;7067;51.832;8.296;2023-07-24T08:27:20;4.80;;;4.40;;
13985;SDS011;7067;51.832;8.296;2023-07-24T08:29:45;4.65;;;4.25;;
13985;SDS011;7067;51.832;8.296;2023-07-24T08:32:10;4.28;;;3.97;;
13985;SDS011;7067;51.832;8.296;2023-07-24T08:34:36;4.55;;;4.25;;
13985;SDS011;7067;51.832;8.296;2023-07-24T08:37:01;7.43;;;4.30;;
13985;SDS011;7067;51.832;8.296;2023-07-24T08:39:27;5.20;;;4.80;;
13985;SDS011;7067;51.832;8.296;2023-07-24T08:41:52;5.05;;;4.65;;
13985;SDS011;7067;51.832;8.296;2023-07-24T08:44:17;4.57;;;4.18;;
13985;SDS011;7067;51.832;8.296;2023-07-24T08:46:43;4.70;;;4.40;;
13985;SDS011;7067;51.832;8.296;2023-07-24T08:49:11;5.10;;;4.75;;
13985;SDS011;7067;51.832;8.296;2023-07-24T08:51:37;5.20;;;4.80;;
13985;SDS011;7067;51.832;8.296;2023-07-24T08:54:02;5.60;;;4.72;;
13985;SDS011;7067;51.832;8.296;2023-07-24T08:56:29;4.05;;;3.75;;
13985;SDS011;7067;51.832;8.296;2023-07-24T08:58:54;4.72;;;4.32;;
13985;SDS011;7067;51.832;8.296;2023-07-24T09:01:20;4.30;;;3.95;;
13985;SDS011;7067;51.832;8.296;2023-07-24T09:03:45;5.00;;;4.60;;
13985;SDS011;7067;51.832;8.296;2023-07-24T09:06:11;4.97;;;4.57;;
13985;SDS011;7067;51.832;8.296;2023-07-24T09:08:37;4.57;;;4.25;;
13985;SDS011;7067;51.832;8.296;2023-07-24T09:11:04;5.32;;;4.82;;
13985;SDS011;7067;51.832;8.296;2023-07-24T09:13:31;5.43;;;5.03;;
13985;SDS011;7067;51.832;8.296;2023-07-24T09:15:57;5.00;;;4.60;;
13985;SDS011;7067;51.832;8.296;2023-07-24T09:18:24;4.07;;;3.78;;
13985;SDS011;7067;51.832;8.296;2023-07-24T09:20:50;4.78;;;4.20;;
13985;SDS011;7067;51.832;8.296;2023-07-24T09:23:15;4.90;;;4.10;;
13985;SDS011;7067;51.832;8.296;2023-07-24T09:25:50;4.57;;;4.22;;
13985;SDS011;7067;51.832;8.296;2023-07-24T09:28:16;3.95;;;3.53;;
13985;SDS011;7067;51.832;8.296;2023-07-24T09:30:50;3.53;;;3.33;;
13985;SDS011;7067;51.832;8.296;2023-07-24T09:33:17;6.05;;;3.15;;
13985;SDS011;7067;51.832;8.296;2023-07-24T09:35:43;3.35;;;3.15;;
13985;SDS011;7067;51.832;8.296;2023-07-24T09:38:09;4.82;;;2.97;;
13985;SDS011;7067;51.832;8.296;2023-07-24T09:40:39;3.72;;;3.42;;
13985;SDS011;7067;51.832;8.296;2023-07-24T09:45:41;4.20;;;3.80;;
13985;SDS011;7067;51.832;8.296;2023-07-24T09:48:08;4.25;;;3.83;;
13985;SDS011;7067;51.832;8.296;2023-07-24T09:50:36;3.92;;;3.63;;
13985;SDS011;7067;51.832;8.296;2023-07-24T09:53:03;3.78;;;3.42;;
13985;SDS011;7067;51.832;8.296;2023-07-24T09:55:33;4.25;;;3.95;;
13985;SDS011;7067;51.832;8.296;2023-07-24T09:58:02;4.32;;;3.53;;
13985;SDS011;7067;51.832;8.296;2023-07-24T10:00:31;4.72;;;4.22;;
13985;SDS011;7067;51.832;8.296;2023-07-24T10:02:57;4.90;;;4.55;;
13985;SDS011;7067;51.832;8.296;2023-07-24T10:05:23;4.25;;;3.95;;
13985;SDS011;7067;51.832;8.296;2023-07-24T10:07:49;3.40;;;3.13;;
13985;SDS011;7067;51.832;8.296;2023-07-24T10:10:18;4.07;;;3.78;;
13985;SDS011;7067;51.832;8.296;2023-07-24T10:12:43;3.50;;;3.22;;
13985;SDS011;7067;51.832;8.296;2023-07-24T10:15:09;4.35;;;3.95;;
13985;SDS011;7067;51.832;8.296;2023-07-24T10:20:04;4.45;;;4.07;;
13985;SDS011;7067;51.832;8.296;2023-07-24T10:22:30;4.07;;;3.78;;
13985;SDS011;7067;51.832;8.296;2023-07-24T10:24:56;5.45;;;4.95;;
13985;SDS011;7067;51.832;8.296;2023-07-24T10:27:25;7.82;;;6.07;;
13985;SDS011;7067;51.832;8.296;2023-07-24T10:30:00;5.68;;;5.28;;
13985;SDS011;7067;51.832;8.296;2023-07-24T10:32:29;5.82;;;5.32;;
13985;SDS011;7067;51.832;8.296;2023-07-24T10:35:07;6.43;;;6.03;;
13985;SDS011;7067;51.832;8.296;2023-07-24T10:37:38;6.22;;;5.72;;
13985;SDS011;7067;51.832;8.296;2023-07-24T10:40:04;6.50;;;6.10;;
13985;SDS011;7067;51.832;8.296;2023-07-24T10:42:30;6.55;;;6.00;;
13985;SDS011;7067;51.832;8.296;2023-07-24T10:45:05;5.47;;;4.97;;
13985;SDS011;7067;51.832;8.296;2023-07-24T10:47:31;5.35;;;4.75;;
13985;SDS011;7067;51.832;8.296;2023-07-24T10:49:57;4.90;;;4.50;;
13985;SDS011;7067;51.832;8.296;2023-07-24T10:52:32;4.82;;;4.50;;
13985;SDS011;7067;51.832;8.296;2023-07-24T10:55:03;5.18;;;4.60;;
13985;SDS011;7067;51.832;8.296;2023-07-24T10:57:29;4.57;;;4.28;;
13985;SDS011;7067;51.832;8.296;2023-07-24T10:59:55;5.88;;;5.45;;
13985;SDS011;7067;51.832;8.296;2023-07-24T11:02:20;5.28;;;4.88;;
13985;SDS011;7067;51.832;8.296;2023-07-24T11:04:46;4.78;;;4.35;;
13985;SDS011;7067;51.832;8.296;2023-07-24T11:07:11;3.88;;;3.58;;
13985;SDS011;7067;51.832;8.296;2023-07-24T11:09:37;4.32;;;3.92;;
13985;SDS011;7067;51.832;8.296;2023-07-24T11:12:11;4.40;;;4.10;;
13985;SDS011;7067;51.832;8.296;2023-07-24T11:14:47;4.13;;;3.83;;
13985;SDS011;7067;51.832;8.296;2023-07-24T11:17:13;5.38;;;3.75;;
13985;SDS011;7067;51.832;8.296;2023-07-24T11:19:39;3.10;;;2.90;;
13985;SDS011;7067;51.832;8.296;2023-07-24T11:22:04;4.07;;;3.67;;
13985;SDS011;7067;51.832;8.296;2023-07-24T11:24:29;3.80;;;3.60;;
13985;SDS011;7067;51.832;8.296;2023-07-24T11:26:55;3.78;;;3.47;;
13985;SDS011;7067;51.832;8.296;2023-07-24T11:29:20;3.50;;;3.30;;
13985;SDS011;7067;51.832;8.296;2023-07-24T11:31:45;3.55;;;2.67;;
13985;SDS011;7067;51.832;8.296;2023-07-24T11:34:11;3.38;;;3.13;;
13985;SDS011;7067;51.832;8.296;2023-07-24T11:36:37;4.80;;;2.67;;
13985;SDS011;7067;51.832;8.296;2023-07-24T11:39:02;3.17;;;2.88;;
13985;SDS011;7067;51.832;8.296;2023-07-24T11:41:28;4.75;;;2.63;;
13985;SDS011;7067;51.832;8.296;2023-07-24T11:43:54;3.10;;;2.90;;
13985;SDS011;7067;51.832;8.296;2023-07-24T11:46:26;2.80;;;2.60;;
13985;SDS011;7067;51.832;8.296;2023-07-24T11:48:52;2.67;;;2.47;;
13985;SDS011;7067;51.832;8.296;2023-07-24T11:51:20;2.90;;;2.70;;
13985;SDS011;7067;51.832;8.296;2023-07-24T11:53:46;3.17;;;2.97;;
13985;SDS011;7067;51.832;8.296;2023-07-24T11:56:14;2.50;;;2.30;;
13985;SDS011;7067;51.832;8.296;2023-07-24T12:01:06;3.40;;;2.13;;
13985;SDS011;7067;51.832;8.296;2023-07-24T12:03:31;2.95;;;2.67;;
13985;SDS011;7067;51.832;8.296;2023-07-24T12:05:56;2.67;;;2.45;;
13985;SDS011;7067;51.832;8.296;2023-07-24T12:08:34;3.03;;;2.80;;
13985;SDS011;7067;51.832;8.296;2023-07-24T12:11:00;3.33;;;3.03;;
13985;SDS011;7067;51.832;8.296;2023-07-24T12:13:26;3.30;;;3.00;;
13985;SDS011;7067;51.832;8.296;2023-07-24T12:15:52;3.25;;;2.90;;
13985;SDS011;7067;51.832;8.296;2023-07-24T12:18:17;3.08;;;2.88;;
13985;SDS011;7067;51.832;8.296;2023-07-24T12:20:43;2.78;;;2.58;;
13985;SDS011;7067;51.832;8.296;2023-07-24T12:23:08;3.15;;;2.95;;
13985;SDS011;7067;51.832;8.296;2023-07-24T12:25:34;3.45;;;3.15;;
13985;SDS011;7067;51.832;8.296;2023-07-24T12:27:59;3.15;;;2.95;;
13985;SDS011;7067;51.832;8.296;2023-07-24T12:30:24;4.00;;;3.67;;
13985;SDS011;7067;51.832;8.296;2023-07-24T12:32:50;5.70;;;3.60;;
13985;SDS011;7067;51.832;8.296;2023-07-24T12:35:15;5.20;;;3.53;;
13985;SDS011;7067;51.832;8.296;2023-07-24T12:37:41;4.00;;;3.67;;
13985;SDS011;7067;51.832;8.296;2023-07-24T12:40:07;5.50;;;4.18;;
13985;SDS011;7067;51.832;8.296;2023-07-24T12:42:33;4.20;;;3.90;;
13985;SDS011;7067;51.832;8.296;2023-07-24T12:44:59;4.60;;;4.30;;
13985;SDS011;7067;51.832;8.296;2023-07-24T12:47:24;5.25;;;4.80;;
13985;SDS011;7067;51.832;8.296;2023-07-24T12:49:50;5.18;;;4.78;;
13985;SDS011;7067;51.832;8.296;2023-07-24T12:52:17;5.20;;;4.80;;
13985;SDS011;7067;51.832;8.296;2023-07-24T12:54:42;6.25;;;5.38;;
13985;SDS011;7067;51.832;8.296;2023-07-24T12:57:08;5.88;;;5.47;;
13985;SDS011;7067;51.832;8.296;2023-07-24T12:59:33;5.55;;;5.07;;
13985;SDS011;7067;51.832;8.296;2023-07-24T13:02:01;6.60;;;6.05;;
13985;SDS011;7067;51.832;8.296;2023-07-24T13:04:27;7.15;;;6.63;;
13985;SDS011;7067;51.832;8.296;2023-07-24T13:06:52;7.20;;;6.60;;
13985;SDS011;7067;51.832;8.296;2023-07-24T13:09:19;7.63;;;6.90;;
13985;SDS011;7067;51.832;8.296;2023-07-24T13:11:44;6.53;;;6.13;;
13985;SDS011;7067;51.832;8.296;2023-07-24T13:14:12;6.18;;;5.68;;
13985;SDS011;7067;51.832;8.296;2023-07-24T13:16:37;4.50;;;4.10;;
13985;SDS011;7067;51.832;8.296;2023-07-24T13:19:03;3.28;;;2.97;;
13985;SDS011;7067;51.832;8.296;2023-07-24T13:21:28;3.25;;;2.95;;
13985;SDS011;7067;51.832;8.296;2023-07-24T13:23:54;3.33;;;3.03;;
13985;SDS011;7067;51.832;8.296;2023-07-24T13:26:20;3.20;;;2.67;;
13985;SDS011;7067;51.832;8.296;2023-07-24T13:28:46;3.35;;;3.05;;
13985;SDS011;7067;51.832;8.296;2023-07-24T13:33:38;2.22;;;2.03;;
13985;SDS011;7067;51.832;8.296;2023-07-24T13:36:03;2.30;;;1.83;;
13985;SDS011;7067;51.832;8.296;2023-07-24T13:38:29;3.25;;;1.88;;
13985;SDS011;7067;51.832;8.296;2023-07-24T13:40:54;2.40;;;2.20;;
13985;SDS011;7067;51.832;8.296;2023-07-24T13:43:19;1.80;;;1.70;;
13985;SDS011;7067;51.832;8.296;2023-07-24T13:45:45;1.95;;;1.70;;
13985;SDS011;7067;51.832;8.296;2023-07-24T13:48:10;2.25;;;2.05;;
13985;SDS011;7067;51.832;8.296;2023-07-24T13:50:35;2.38;;;1.83;;
13985;SDS011;7067;51.832;8.296;2023-07-24T13:53:01;2.17;;;1.75;;
13985;SDS011;7067;51.832;8.296;2023-07-24T13:55:26;1.83;;;1.67;;
13985;SDS011;7067;51.832;8.296;2023-07-24T13:57:51;1.55;;;1.45;;
13985;SDS011;7067;51.832;8.296;2023-07-24T14:00:17;1.77;;;1.67;;
13985;SDS011;7067;51.832;8.296;2023-07-24T14:02:42;1.50;;;1.40;;
13985;SDS011;7067;51.832;8.296;2023-07-24T14:05:08;1.23;;;1.13;;
13985;SDS011;7067;51.832;8.296;2023-07-24T14:07:33;1.98;;;1.30;;
13985;SDS011;7067;51.832;8.296;2023-07-24T14:09:59;2.05;;;1.55;;
13985;SDS011;7067;51.832;8.296;2023-07-24T14:12:24;1.20;;;1.10;;
13985;SDS011;7067;51.832;8.296;2023-07-24T14:14:49;1.77;;;1.30;;
13985;SDS011;7067;51.832;8.296;2023-07-24T14:17:15;1.27;;;1.17;;
13985;SDS011;7067;51.832;8.296;2023-07-24T14:19:40;1.20;;;1.10;;
13985;SDS011;7067;51.832;8.296;2023-07-24T14:22:05;3.10;;;1.10;;
13985;SDS011;7067;51.832;8.296;2023-07-24T14:24:31;0.80;;;0.80;;
13985;SDS011;7067;51.832;8.296;2023-07-24T14:26:56;0.80;;;0.73;;
13985;SDS011;7067;51.832;8.296;2023-07-24T14:29:22;1.20;;;0.57;;
13985;SDS011;7067;51.832;8.296;2023-07-24T14:31:47;0.57;;;0.50;;
13985;SDS011;7067;51.832;8.296;2023-07-24T14:34:12;0.82;;;0.70;;
13985;SDS011;7067;51.832;8.296;2023-07-24T14:36:38;1.05;;;0.80;;
13985;SDS011;7067;51.832;8.296;2023-07-24T14:39:04;0.70;;;0.60;;
13985;SDS011;7067;51.832;8.296;2023-07-24T14:41:33;0.98;;;0.90;;
13985;SDS011;7067;51.832;8.296;2023-07-24T14:43:59;0.80;;;0.80;;
13985;SDS011;7067;51.832;8.296;2023-07-24T14:46:24;1.52;;;0.70;;
13985;SDS011;7067;51.832;8.296;2023-07-24T14:48:49;0.93;;;0.88;;
13985;SDS011;7067;51.832;8.296;2023-07-24T14:51:15;0.82;;;0.80;;
13985;SDS011;7067;51.832;8.296;2023-07-24T14:53:41;1.20;;;1.10;;
13985;SDS011;7067;51.832;8.296;2023-07-24T14:56:06;1.30;;;1.20;;
13985;SDS011;7067;51.832;8.296;2023-07-24T14:58:32;0.70;;;0.70;;
13985;SDS011;7067;51.832;8.296;2023-07-24T15:00:58;1.48;;;1.38;;
13985;SDS011;7067;51.832;8.296;2023-07-24T15:03:24;1.50;;;1.40;;
13985;SDS011;7067;51.832;8.296;2023-07-24T15:05:49;1.98;;;1.00;;
13985;SDS011;7067;51.832;8.296;2023-07-24T15:08:15;1.33;;;1.23;;
13985;SDS011;7067;51.832;8.296;2023-07-24T15:10:42;0.77;;;0.77;;